F/V L'arche D'allian — FHGO — position and weather

sailwx.info

Track history (hours):
 
Tides and Currents Weather Stations Pressure Air Temp Water Temp Dewpoint Dewpoint Depression Visibility Wind Speed Wind Dir Waves Ship Positions

F/V L'arche D'allian

Last reported at 2018-Feb-22 20:25 UTC. Time now 2018-Feb-22 20:37 UTC.
Position N 48°01' W 004°32'.

Length 20 m.

Type: Fishing. MMSI: 227311000.

Date/timePositionNaut miles runAvg speedWind from/ knotsBaromVisibWave heightAir tempDewpointWater temp
2018-Feb-22 20:25N 48°01' W 004°32'0 0.0
2018-Feb-22 19:56N 48°01' W 004°32'0 0.0
2018-Feb-22 19:30N 48°01' W 004°32'0 0.0
2018-Feb-22 19:00N 48°01' W 004°32'0 0.0
2018-Feb-22 18:26N 48°01' W 004°32'0 0.0
2018-Feb-22 18:00N 48°01' W 004°32'0 0.0
2018-Feb-22 17:29N 48°01' W 004°32'0 0.0
2018-Feb-22 17:00N 48°01' W 004°32'0 0.0
2018-Feb-22 16:29N 48°01' W 004°32'0 0.0
2018-Feb-22 16:00N 48°01' W 004°32'0 0.0
2018-Feb-22 15:28N 48°01' W 004°32'0 0.0
2018-Feb-22 14:58N 48°01' W 004°32'0 0.0
2018-Feb-22 14:27N 48°01' W 004°32'2 5.1
2018-Feb-22 13:59N 47°59' W 004°34'510.1
2018-Feb-22 13:29N 47°57' W 004°41'5 9.9
2018-Feb-22 13:00N 47°55' W 004°48'5 9.3
2018-Feb-22 12:30N 47°53' W 004°54'1 2.6
2018-Feb-22 12:00N 47°52' W 004°55'2 4.8
2018-Feb-22 11:29N 47°52' W 004°51'1 1.3
2018-Feb-22 11:00N 47°51' W 004°51'1 1.6
2018-Feb-22 10:30N 47°50' W 004°51'0 0.8
2018-Feb-22 10:01N 47°50' W 004°51'1 1.1
2018-Feb-22 09:30N 47°51' W 004°51'1 1.4
2018-Feb-22 09:00N 47°51' W 004°50'1 1.2
2018-Feb-22 08:28N 47°52' W 004°50'1 1.4
2018-Feb-22 07:59N 47°53' W 004°50'1 1.1
2018-Feb-22 07:30N 47°53' W 004°50'5 9.7
2018-Feb-22 07:00N 47°55' W 004°44'510.9
2018-Feb-22 06:30N 47°58' W 004°37'4 8.8
2018-Feb-22 06:00N 48°01' W 004°32'0 0.0
2018-Feb-22 05:31N 48°01' W 004°32'0 0.0
2018-Feb-22 05:00N 48°01' W 004°32'0 0.0
2018-Feb-22 04:30N 48°01' W 004°32'0 0.0
2018-Feb-22 03:58N 48°01' W 004°32'0 0.0
2018-Feb-22 03:30N 48°01' W 004°32'0 0.0
2018-Feb-22 02:59N 48°01' W 004°32'0 0.0
2018-Feb-22 02:29N 48°01' W 004°32'0 0.0
2018-Feb-22 02:00N 48°01' W 004°32'0 0.0
2018-Feb-22 01:29N 48°01' W 004°32'0 0.0
2018-Feb-22 01:00N 48°01' W 004°32'0 0.0
2018-Feb-22 00:29N 48°01' W 004°32'0 0.0
2018-Feb-21 23:58N 48°01' W 004°32'0 0.0
2018-Feb-21 23:30N 48°01' W 004°32'0 0.0
2018-Feb-21 22:54N 48°01' W 004°32'0 0.0
2018-Feb-21 22:30N 48°01' W 004°32'0 0.0
2018-Feb-21 22:01N 48°01' W 004°32'0 0.0
2018-Feb-21 21:30N 48°01' W 004°32'0 0.0
2018-Feb-21 21:00N 48°01' W 004°32'0 0.0
2018-Feb-21 20:30N 48°01' W 004°32'0 0.0
2018-Feb-21 20:00N 48°01' W 004°32'0 0.0
2018-Feb-21 19:26N 48°01' W 004°32'0 0.0
2018-Feb-21 19:00N 48°01' W 004°32'0 0.0
2018-Feb-21 18:28N 48°01' W 004°32'0 0.0
2018-Feb-21 17:58N 48°01' W 004°32'0 0.0
2018-Feb-21 17:25N 48°01' W 004°32'0 0.0
2018-Feb-21 17:00N 48°01' W 004°32'0 0.0
2018-Feb-21 16:30N 48°01' W 004°32'0 0.0
2018-Feb-21 15:58N 48°01' W 004°32'0 0.0
2018-Feb-21 15:31N 48°01' W 004°32'2 3.8
2018-Feb-21 14:59N 47°60' W 004°34'510.4
2018-Feb-21 14:28N 47°57' W 004°41'510.5
2018-Feb-21 13:59N 47°54' W 004°47'4 9.1
2018-Feb-21 13:30N 47°51' W 004°51'3 6.6
2018-Feb-21 13:00N 47°54' W 004°49'611.5
2018-Feb-21 12:29N 47°55' W 004°40'3 5.9
2018-Feb-21 12:00N 47°55' W 004°36'0 1.0
2018-Feb-21 11:30N 47°55' W 004°36'1 1.4
2018-Feb-21 11:01N 47°55' W 004°36'1 1.4
2018-Feb-21 10:30N 47°55' W 004°35'1 0.9
2018-Feb-21 09:57N 47°55' W 004°35'0 0.4
2018-Feb-21 09:30N 47°55' W 004°35'0 0.7
2018-Feb-21 08:59N 47°55' W 004°34'2 3.7
2018-Feb-21 08:26N 47°57' W 004°34'510.3
2018-Feb-21 08:00N 48°01' W 004°32'0 0.0
2018-Feb-21 07:25N 48°01' W 004°32'0 0.0
2018-Feb-21 07:00N 48°01' W 004°32'0 0.0
2018-Feb-21 06:29N 48°01' W 004°32'0 0.0
2018-Feb-21 05:59N 48°01' W 004°32'0 0.0
2018-Feb-21 05:30N 48°01' W 004°32'0 0.0
2018-Feb-21 05:00N 48°01' W 004°32'0 0.0
2018-Feb-21 04:30N 48°01' W 004°32'0 0.0
2018-Feb-21 03:59N 48°01' W 004°32'0 0.0
2018-Feb-21 03:29N 48°01' W 004°32'0 0.0
2018-Feb-21 03:00N 48°01' W 004°32'0 0.0
2018-Feb-21 02:30N 48°01' W 004°32'0 0.0
2018-Feb-21 01:59N 48°01' W 004°32'0 0.0
2018-Feb-21 01:28N 48°01' W 004°32'0 0.0
2018-Feb-21 00:57N 48°01' W 004°32'0 0.0
2018-Feb-21 00:27N 48°01' W 004°32'0 0.0
2018-Feb-21 00:00N 48°01' W 004°32'0 0.0
2018-Feb-20 23:29N 48°01' W 004°32'0 0.0
2018-Feb-20 22:59N 48°01' W 004°32'0 0.0
2018-Feb-20 22:28N 48°01' W 004°32'0 0.0
2018-Feb-20 22:00N 48°01' W 004°32'0 0.0
2018-Feb-20 21:30N 48°01' W 004°32'0 0.0
2018-Feb-20 20:59N 48°01' W 004°32'0 0.0
2018-Feb-20 20:29N 48°01' W 004°32'0 0.0
2018-Feb-20 19:59N 48°01' W 004°32'0 0.0
2018-Feb-20 19:29N 48°01' W 004°32'0 0.0
2018-Feb-20 18:55N 48°01' W 004°32'0 0.0
2018-Feb-20 18:29N 48°01' W 004°32'0 0.0
2018-Feb-20 17:59N 48°01' W 004°32'0 0.0
2018-Feb-20 17:30N 48°01' W 004°32'0 0.0
2018-Feb-20 16:57N 48°01' W 004°32'0 0.0
2018-Feb-20 16:30N 48°01' W 004°32'0 0.0
2018-Feb-20 15:59N 48°01' W 004°32'0 0.0
2018-Feb-20 15:26N 48°01' W 004°32'0 0.0
2018-Feb-20 14:55N 48°01' W 004°32'0 0.0
2018-Feb-20 14:30N 48°01' W 004°32'1 1.7
2018-Feb-20 13:57N 48°00' W 004°33'3 6.7
2018-Feb-20 13:28N 47°57' W 004°34'2 4.8
2018-Feb-20 12:59N 47°55' W 004°35'0 0.8
2018-Feb-20 12:30N 47°55' W 004°35'2 3.5
2018-Feb-20 12:00N 47°55' W 004°33'1 1.3
2018-Feb-20 11:31N 47°54' W 004°32'0 0.6
2018-Feb-20 10:54N 47°54' W 004°33'1 1.5
2018-Feb-20 10:29N 47°54' W 004°33'0 0.9
2018-Feb-20 10:01N 47°54' W 004°33'0 0.4
2018-Feb-20 09:30N 47°54' W 004°33'1 1.5
2018-Feb-20 09:00N 47°55' W 004°33'1 2.0
2018-Feb-20 08:29N 47°56' W 004°33'510.7
2018-Feb-20 08:00N 48°01' W 004°32'0 0.2
2018-Feb-20 07:28N 48°01' W 004°32'0 0.0
2018-Feb-20 07:00N 48°01' W 004°32'0 0.0
2018-Feb-20 06:27N 48°01' W 004°32'0 0.0
2018-Feb-20 06:00N 48°01' W 004°32'0 0.0
2018-Feb-20 05:30N 48°01' W 004°32'0 0.0
2018-Feb-20 04:59N 48°01' W 004°32'0 0.0
2018-Feb-20 04:30N 48°01' W 004°32'0 0.0
2018-Feb-20 04:00N 48°01' W 004°32'0 0.0
2018-Feb-20 03:30N 48°01' W 004°32'0 0.0
2018-Feb-20 03:00N 48°01' W 004°32'0 0.0
2018-Feb-20 02:30N 48°01' W 004°32'0 0.0
2018-Feb-20 02:00N 48°01' W 004°32'0 0.0
2018-Feb-20 01:29N 48°01' W 004°32'0 0.0
2018-Feb-20 00:57N 48°01' W 004°32'0 0.0
2018-Feb-20 00:29N 48°01' W 004°32'0 0.0
2018-Feb-19 23:54N 48°01' W 004°32'0 0.0
2018-Feb-19 23:30N 48°01' W 004°32'0 0.0
2018-Feb-19 23:01N 48°01' W 004°32'0 0.0
2018-Feb-19 22:29N 48°01' W 004°32'0 0.0
2018-Feb-19 21:59N 48°01' W 004°32'0 0.0
2018-Feb-19 21:30N 48°01' W 004°32'0 0.0
2018-Feb-19 21:00N 48°01' W 004°32'0 0.0
2018-Feb-19 20:30N 48°01' W 004°32'0 0.0
2018-Feb-19 19:59N 48°01' W 004°32'0 0.0
2018-Feb-19 19:30N 48°01' W 004°32'0 0.0
2018-Feb-19 18:58N 48°01' W 004°32'0 0.0
2018-Feb-19 18:29N 48°01' W 004°32'5 9.8
2018-Feb-19 18:00N 47°56' W 004°33'2 4.9
2018-Feb-19 17:30N 47°54' W 004°33'5 9.5
2018-Feb-19 17:00N 47°59' W 004°33'3 4.9
2018-Feb-19 16:29N 48°01' W 004°32'0 0.0
2018-Feb-19 16:00N 48°01' W 004°32'0 0.0
2018-Feb-19 15:29N 48°01' W 004°32'0 0.0
2018-Feb-19 15:00N 48°01' W 004°32'0 0.0
2018-Feb-19 14:30N 48°01' W 004°32'0 0.0
2018-Feb-19 14:00N 48°01' W 004°32'0 0.0
2018-Feb-19 13:30N 48°01' W 004°32'0 0.0
2018-Feb-19 12:55N 48°01' W 004°32'0 0.0
2018-Feb-19 12:30N 48°01' W 004°32'0 0.0
2018-Feb-19 12:01N 48°01' W 004°32'0 0.0
2018-Feb-19 11:30N 48°01' W 004°32'0 0.0
2018-Feb-19 11:01N 48°01' W 004°32'0 0.0
2018-Feb-19 10:29N 48°01' W 004°32'0 0.0
2018-Feb-19 10:00N 48°01' W 004°32'0 0.0
2018-Feb-19 09:29N 48°01' W 004°32'0 0.0
2018-Feb-19 08:52N 48°01' W 004°32'0 0.0
2018-Feb-19 08:28N 48°01' W 004°32'0 0.0
2018-Feb-19 08:00N 48°01' W 004°32'0 0.0
2018-Feb-19 07:30N 48°01' W 004°32'0 0.0
2018-Feb-19 06:58N 48°01' W 004°32'0 0.0
2018-Feb-19 06:30N 48°01' W 004°32'0 0.2
2018-Feb-19 05:59N 48°01' W 004°32'0 0.1
2018-Feb-19 05:27N 48°01' W 004°32'0 0.0
2018-Feb-19 04:57N 48°01' W 004°32'0 0.0
2018-Feb-19 04:30N 48°01' W 004°32'0 0.0
2018-Feb-19 04:00N 48°01' W 004°32'0 0.0
2018-Feb-19 03:30N 48°01' W 004°32'0 0.0
2018-Feb-19 03:00N 48°01' W 004°32'0 0.0
2018-Feb-19 02:29N 48°01' W 004°32'0 0.0
2018-Feb-19 02:00N 48°01' W 004°32'0 0.0
2018-Feb-19 01:28N 48°01' W 004°32'0 0.0
2018-Feb-19 00:59N 48°01' W 004°32'0 0.0
2018-Feb-19 00:29N 48°01' W 004°32'0 0.0
2018-Feb-19 00:01N 48°01' W 004°32'0 0.0
2018-Feb-18 23:30N 48°01' W 004°32'0 0.0
2018-Feb-18 22:58N 48°01' W 004°32'0 0.0
2018-Feb-18 22:30N 48°01' W 004°32'0 0.0
2018-Feb-18 21:56N 48°01' W 004°32'0 0.0
2018-Feb-18 21:30N 48°01' W 004°32'0 0.0
2018-Feb-18 20:55N 48°01' W 004°32'0 0.0
2018-Feb-18 20:22N 48°01' W 004°32'0 0.0
2018-Feb-18 20:00N 48°01' W 004°32'0 0.0
2018-Feb-18 19:27N 48°01' W 004°32'0 0.0
2018-Feb-18 18:55N 48°01' W 004°32'0 0.0
2018-Feb-18 18:20N 48°01' W 004°32'0 0.0
2018-Feb-18 17:55N 48°01' W 004°32'0 0.0
2018-Feb-18 17:26N 48°01' W 004°32'0 0.0
2018-Feb-18 16:56N 48°01' W 004°32'0 0.0
2018-Feb-18 16:15N 48°01' W 004°32'0 0.0
2018-Feb-18 15:51N 48°01' W 004°32'0 0.0
2018-Feb-18 15:26N 48°01' W 004°32'0 0.0
2018-Feb-18 15:00N 48°01' W 004°32'0 0.0
2018-Feb-18 14:30N 48°01' W 004°32'0 0.0
2018-Feb-18 13:59N 48°01' W 004°32'1 1.3
2018-Feb-18 13:29N 48°01' W 004°32'0 0.7
2018-Feb-18 13:00N 48°00' W 004°33'2 4.6
2018-Feb-18 12:29N 47°58' W 004°33'3 5.9
2018-Feb-18 11:59N 47°55' W 004°33'1 1.5
2018-Feb-18 11:30N 47°54' W 004°33'0 0.5
2018-Feb-18 10:58N 47°54' W 004°34'0 0.8
2018-Feb-18 10:28N 47°55' W 004°34'1 1.4
2018-Feb-18 10:01N 47°54' W 004°34'1 1.0
2018-Feb-18 09:28N 47°55' W 004°35'0 0.6
2018-Feb-18 09:01N 47°55' W 004°35'0 0.7
2018-Feb-18 08:30N 47°54' W 004°35'1 2.8
2018-Feb-18 07:58N 47°56' W 004°35'510.8
2018-Feb-18 07:28N 48°01' W 004°32'0 0.6
2018-Feb-18 07:00N 48°01' W 004°32'0 0.0
2018-Feb-18 06:30N 48°01' W 004°32'0 0.0
2018-Feb-18 06:00N 48°01' W 004°32'0 0.0
2018-Feb-18 05:30N 48°01' W 004°32'0 0.0
2018-Feb-18 05:00N 48°01' W 004°32'0 0.0
2018-Feb-18 04:30N 48°01' W 004°32'0 0.0
2018-Feb-18 04:00N 48°01' W 004°32'0 0.0
2018-Feb-18 03:30N 48°01' W 004°32'0 0.0
2018-Feb-18 03:00N 48°01' W 004°32'0 0.0
2018-Feb-18 02:30N 48°01' W 004°32'0 0.0
2018-Feb-18 02:00N 48°01' W 004°32'0 0.0
2018-Feb-18 01:29N 48°01' W 004°32'0 0.0
2018-Feb-18 00:57N 48°01' W 004°32'0 0.0
2018-Feb-18 00:30N 48°01' W 004°32'0 0.0
2018-Feb-17 23:53N 48°01' W 004°32'0 0.0
2018-Feb-17 23:28N 48°01' W 004°32'0 0.0
2018-Feb-17 23:00N 48°01' W 004°32'0 0.0
2018-Feb-17 22:30N 48°01' W 004°32'0 0.0
2018-Feb-17 21:58N 48°01' W 004°32'0 0.0
2018-Feb-17 21:30N 48°01' W 004°32'0 0.0
2018-Feb-17 21:00N 48°01' W 004°32'0 0.0
2018-Feb-17 20:29N 48°01' W 004°32'0 0.0
2018-Feb-17 20:00N 48°01' W 004°32'0 0.0
2018-Feb-17 19:29N 48°01' W 004°32'0 0.0
2018-Feb-17 19:00N 48°01' W 004°32'0 0.0
2018-Feb-17 18:28N 48°01' W 004°32'0 0.0
2018-Feb-17 17:58N 48°01' W 004°32'0 0.0
2018-Feb-17 17:28N 48°01' W 004°32'0 0.0
2018-Feb-17 16:58N 48°01' W 004°32'0 0.0
2018-Feb-17 16:30N 48°01' W 004°32'0 0.0
2018-Feb-17 16:00N 48°01' W 004°32'0 0.0
2018-Feb-17 15:29N 48°01' W 004°32'0 0.0
2018-Feb-17 15:00N 48°01' W 004°32'0 0.0
2018-Feb-17 14:31N 48°01' W 004°32'2 3.0
2018-Feb-17 14:00N 47°60' W 004°33'510.6
2018-Feb-17 13:30N 47°55' W 004°35'1 2.9
2018-Feb-17 13:00N 47°54' W 004°34'1 1.5
2018-Feb-17 12:30N 47°54' W 004°33'0 0.3
2018-Feb-17 11:50N 47°54' W 004°33'1 1.3
2018-Feb-17 11:27N 47°54' W 004°33'0 0.4
2018-Feb-17 11:01N 47°54' W 004°33'1 1.2
2018-Feb-17 10:31N 47°54' W 004°33'1 1.0
2018-Feb-17 10:00N 47°54' W 004°33'0 1.0
2018-Feb-17 09:31N 47°55' W 004°33'1 1.3
2018-Feb-17 09:00N 47°54' W 004°34'0 0.7
2018-Feb-17 08:29N 47°54' W 004°34'2 4.4
2018-Feb-17 07:57N 47°57' W 004°33'510.4
2018-Feb-17 07:30N 48°01' W 004°32'0 0.2
2018-Feb-17 06:56N 48°01' W 004°32'0 0.0
2018-Feb-17 06:27N 48°01' W 004°32'0 0.0
2018-Feb-17 06:01N 48°01' W 004°32'0 0.0
2018-Feb-17 05:29N 48°01' W 004°32'0 0.0
2018-Feb-17 05:00N 48°01' W 004°32'0 0.0
2018-Feb-17 04:30N 48°01' W 004°32'0 0.0
2018-Feb-17 03:57N 48°01' W 004°32'0 0.0
2018-Feb-17 03:30N 48°01' W 004°32'0 0.0
2018-Feb-17 03:00N 48°01' W 004°32'0 0.0
2018-Feb-17 02:30N 48°01' W 004°32'0 0.0
2018-Feb-17 01:58N 48°01' W 004°32'0 0.0
2018-Feb-17 01:30N 48°01' W 004°32'0 0.0
2018-Feb-17 01:00N 48°01' W 004°32'0 0.0
2018-Feb-17 00:27N 48°01' W 004°32'0 0.0
2018-Feb-16 23:57N 48°01' W 004°32'0 0.0
2018-Feb-16 23:28N 48°01' W 004°32'0 0.0
2018-Feb-16 23:00N 48°01' W 004°32'0 0.0
2018-Feb-16 22:12N 48°01' W 004°32'0 0.0
2018-Feb-16 21:58N 48°01' W 004°32'0 0.0
2018-Feb-16 21:30N 48°01' W 004°32'0 0.0
2018-Feb-16 21:00N 48°01' W 004°32'0 0.0
2018-Feb-16 20:30N 48°01' W 004°32'0 0.0
2018-Feb-16 19:59N 48°01' W 004°32'0 0.0
2018-Feb-16 19:30N 48°01' W 004°32'0 0.0
2018-Feb-16 18:58N 48°01' W 004°32'0 0.0
2018-Feb-16 18:30N 48°01' W 004°32'0 0.0
2018-Feb-16 18:00N 48°01' W 004°32'0 0.0
2018-Feb-16 17:29N 48°01' W 004°32'0 0.0
2018-Feb-16 16:57N 48°01' W 004°32'0 0.0
2018-Feb-16 16:30N 48°01' W 004°32'0 0.0
2018-Feb-16 16:00N 48°01' W 004°32'0 0.0
2018-Feb-16 15:30N 48°01' W 004°32'0 0.0
2018-Feb-16 15:00N 48°01' W 004°32'0 0.0
2018-Feb-16 14:28N 48°01' W 004°32'3 6.5
2018-Feb-16 14:00N 47°58' W 004°33'4 8.0
2018-Feb-16 13:30N 47°54' W 004°34'1 1.3
2018-Feb-16 13:00N 47°54' W 004°33'0 0.5
2018-Feb-16 12:30N 47°54' W 004°33'0 0.9
2018-Feb-16 12:00N 47°54' W 004°33'0 0.8
2018-Feb-16 11:29N 47°53' W 004°32'0 1.0
2018-Feb-16 11:00N 47°53' W 004°32'1 1.0
2018-Feb-16 10:29N 47°52' W 004°32'1 1.2
2018-Feb-16 10:00N 47°52' W 004°31'1 1.0
2018-Feb-16 09:22N 47°53' W 004°32'0 1.3
2018-Feb-16 08:59N 47°53' W 004°32'0 1.0
2018-Feb-16 08:30N 47°53' W 004°32'1 1.2
2018-Feb-16 07:59N 47°54' W 004°32'2 4.3
2018-Feb-16 07:30N 47°56' W 004°32'510.1
2018-Feb-16 07:00N 48°01' W 004°32'0 0.1
2018-Feb-16 06:30N 48°01' W 004°32'0 0.0
2018-Feb-16 06:00N 48°01' W 004°32'0 0.0
2018-Feb-16 05:29N 48°01' W 004°32'0 0.0
2018-Feb-16 05:00N 48°01' W 004°32'0 0.0
2018-Feb-16 04:30N 48°01' W 004°32'0 0.0
2018-Feb-16 04:00N 48°01' W 004°32'0 0.0
2018-Feb-16 03:28N 48°01' W 004°32'0 0.0
2018-Feb-16 02:59N 48°01' W 004°32'0 0.0
2018-Feb-16 02:30N 48°01' W 004°32'0 0.0
2018-Feb-16 02:00N 48°01' W 004°32'0 0.0
2018-Feb-16 01:30N 48°01' W 004°32'0 0.0
2018-Feb-16 00:59N 48°01' W 004°32'0 0.0
2018-Feb-16 00:30N 48°01' W 004°32'0 0.0
2018-Feb-15 23:59N 48°01' W 004°32'0 0.0
2018-Feb-15 23:28N 48°01' W 004°32'0 0.0
2018-Feb-15 22:59N 48°01' W 004°32'0 0.0
2018-Feb-15 22:30N 48°01' W 004°32'0 0.0
2018-Feb-15 21:59N 48°01' W 004°32'0 0.0
2018-Feb-15 21:25N 48°01' W 004°32'0 0.0
2018-Feb-15 20:57N 48°01' W 004°32'0 0.0
2018-Feb-15 20:30N 48°01' W 004°32'0 0.0
2018-Feb-15 19:57N 48°01' W 004°32'0 0.0
2018-Feb-15 19:27N 48°01' W 004°32'0 0.0
2018-Feb-15 18:56N 48°01' W 004°32'0 0.0
2018-Feb-15 18:30N 48°01' W 004°32'0 0.0
2018-Feb-15 17:56N 48°01' W 004°32'0 0.0
2018-Feb-15 17:30N 48°01' W 004°32'0 0.0
2018-Feb-15 16:53N 48°01' W 004°32'0 0.0
2018-Feb-15 16:29N 48°01' W 004°32'0 0.0
2018-Feb-15 15:56N 48°01' W 004°32'0 0.0
2018-Feb-15 15:23N 48°01' W 004°32'0 0.0
2018-Feb-15 14:58N 48°01' W 004°32'0 0.0
2018-Feb-15 14:30N 48°01' W 004°32'1 1.1
2018-Feb-15 14:00N 48°01' W 004°32'510.4
2018-Feb-15 13:30N 47°55' W 004°32'1 1.1
2018-Feb-15 12:41N 47°55' W 004°33'0 0.9
2018-Feb-15 12:24N 47°55' W 004°33'0 0.8
2018-Feb-15 11:52N 47°55' W 004°33'1 2.5
2018-Feb-15 11:30N 47°54' W 004°33'1 1.1
2018-Feb-15 10:58N 47°54' W 004°33'1 1.5
2018-Feb-15 10:27N 47°54' W 004°33'1 1.0
2018-Feb-15 09:57N 47°55' W 004°33'1 1.1
2018-Feb-15 09:28N 47°54' W 004°34'0 0.5
2018-Feb-15 08:55N 47°54' W 004°34'0 1.0
2018-Feb-15 08:28N 47°55' W 004°34'1 1.1
2018-Feb-15 08:00N 47°55' W 004°34'1 2.1
2018-Feb-15 07:28N 47°57' W 004°34'5 9.4
2018-Feb-15 06:57N 48°01' W 004°32'0 0.0
2018-Feb-15 06:28N 48°01' W 004°32'0 0.0
2018-Feb-15 06:00N 48°01' W 004°32'0 0.0
2018-Feb-15 05:28N 48°01' W 004°32'0 0.0
2018-Feb-15 04:59N 48°01' W 004°32'0 0.0
2018-Feb-15 04:29N 48°01' W 004°32'0 0.0
2018-Feb-15 03:56N 48°01' W 004°32'0 0.0
2018-Feb-15 03:26N 48°01' W 004°32'0 0.0
2018-Feb-15 02:52N 48°01' W 004°32'0 0.0
2018-Feb-15 02:30N 48°01' W 004°32'0 0.0
2018-Feb-15 01:58N 48°01' W 004°32'0 0.0
2018-Feb-15 01:27N 48°01' W 004°32'0 0.0
2018-Feb-15 00:57N 48°01' W 004°32'0 0.0
2018-Feb-15 00:28N 48°01' W 004°32'0 0.0
2018-Feb-14 23:57N 48°01' W 004°32'0 0.0
2018-Feb-14 23:30N 48°01' W 004°32'0 0.0
2018-Feb-14 22:57N 48°01' W 004°32'0 0.0
2018-Feb-14 22:30N 48°01' W 004°32'0 0.0
2018-Feb-14 21:57N 48°01' W 004°32'0 0.0
2018-Feb-14 21:20N 48°01' W 004°32'0 0.0
2018-Feb-14 20:58N 48°01' W 004°32'0 0.0
2018-Feb-14 20:22N 48°01' W 004°32'0 0.0
2018-Feb-14 19:59N 48°01' W 004°32'0 0.0
2018-Feb-14 19:29N 48°01' W 004°32'0 0.0
2018-Feb-14 18:51N 48°01' W 004°32'0 0.0
2018-Feb-14 18:29N 48°01' W 004°32'0 0.0
2018-Feb-14 17:56N 48°01' W 004°32'0 0.0
2018-Feb-14 17:22N 48°01' W 004°32'0 0.0
2018-Feb-14 16:59N 48°01' W 004°32'0 0.0
2018-Feb-14 16:29N 48°01' W 004°32'0 0.0
2018-Feb-14 15:57N 48°01' W 004°32'0 0.0
2018-Feb-14 15:29N 48°01' W 004°32'0 0.0
2018-Feb-14 14:59N 48°01' W 004°32'510.3
2018-Feb-14 14:28N 47°56' W 004°33'1 2.8
2018-Feb-14 14:00N 47°55' W 004°34'4 6.5
2018-Feb-14 13:24N 47°58' W 004°33'3 7.1
2018-Feb-14 13:00N 48°01' W 004°32'0 0.0
2018-Feb-14 12:30N 48°01' W 004°32'0 0.0
2018-Feb-14 12:00N 48°01' W 004°32'0 0.0
2018-Feb-14 11:30N 48°01' W 004°32'0 0.0
2018-Feb-14 10:58N 48°01' W 004°32'0 0.0
2018-Feb-14 10:29N 48°01' W 004°32'0 0.0
2018-Feb-14 09:48N 48°01' W 004°32'0 0.0
2018-Feb-14 09:28N 48°01' W 004°32'0 0.0
2018-Feb-14 09:00N 48°01' W 004°32'0 0.0
2018-Feb-14 08:24N 48°01' W 004°32'0 0.0
2018-Feb-14 07:58N 48°01' W 004°32'0 0.0
2018-Feb-14 07:29N 48°01' W 004°32'0 0.0
2018-Feb-14 07:00N 48°01' W 004°32'0 0.0
2018-Feb-14 06:27N 48°01' W 004°32'0 0.0
2018-Feb-14 05:55N 48°01' W 004°32'0 0.0
2018-Feb-14 05:30N 48°01' W 004°32'0 0.0
2018-Feb-14 04:55N 48°01' W 004°32'0 0.0
2018-Feb-14 04:26N 48°01' W 004°32'0 0.0
2018-Feb-14 03:59N 48°01' W 004°32'0 0.0
2018-Feb-14 03:27N 48°01' W 004°32'0 0.0
2018-Feb-14 02:59N 48°01' W 004°32'0 0.0
2018-Feb-14 02:30N 48°01' W 004°32'0 0.0
2018-Feb-14 01:59N 48°01' W 004°32'0 0.0
2018-Feb-14 01:25N 48°01' W 004°32'0 0.0
2018-Feb-14 01:00N 48°01' W 004°32'0 0.0
2018-Feb-14 00:26N 48°01' W 004°32'0 0.0
2018-Feb-13 23:58N 48°01' W 004°32'0 0.0
2018-Feb-13 23:30N 48°01' W 004°32'0 0.0
2018-Feb-13 23:00N 48°01' W 004°32'0 0.0
2018-Feb-13 22:28N 48°01' W 004°32'0 0.0
2018-Feb-13 21:58N 48°01' W 004°32'0 0.0
2018-Feb-13 21:30N 48°01' W 004°32'0 0.0
2018-Feb-13 21:00N 48°01' W 004°32'0 0.0
2018-Feb-13 20:26N 48°01' W 004°32'0 0.0
2018-Feb-13 19:56N 48°01' W 004°32'0 0.0
2018-Feb-13 19:30N 48°01' W 004°32'0 0.0
2018-Feb-13 18:59N 48°01' W 004°32'0 0.0
2018-Feb-13 18:30N 48°01' W 004°32'0 0.0
2018-Feb-13 17:50N 48°01' W 004°32'0 0.0
2018-Feb-13 17:30N 48°01' W 004°32'0 0.0
2018-Feb-13 16:59N 48°01' W 004°32'0 0.0
2018-Feb-13 16:29N 48°01' W 004°32'0 0.0
2018-Feb-13 15:59N 48°01' W 004°32'0 0.0
2018-Feb-13 15:25N 48°01' W 004°32'0 0.0
2018-Feb-13 14:54N 48°01' W 004°32'0 0.0
2018-Feb-13 14:25N 48°01' W 004°32'1 2.9
2018-Feb-13 13:59N 48°00' W 004°33'5 9.9
2018-Feb-13 13:30N 47°56' W 004°36'1 1.8
2018-Feb-13 13:00N 47°55' W 004°36'0 0.8
2018-Feb-13 12:30N 47°55' W 004°35'0 0.5
2018-Feb-13 12:00N 47°55' W 004°35'1 1.3
2018-Feb-13 11:30N 47°54' W 004°35'1 1.1
2018-Feb-13 10:59N 47°55' W 004°35'3 5.3
2018-Feb-13 10:23N 47°58' W 004°33'3 8.0
2018-Feb-13 10:00N 48°01' W 004°32'0 0.0
2018-Feb-13 09:29N 48°01' W 004°32'0 0.0
2018-Feb-13 08:52N 48°01' W 004°32'0 0.0
2018-Feb-13 08:29N 48°01' W 004°32'0 0.0
2018-Feb-13 07:57N 48°01' W 004°32'0 0.0
2018-Feb-13 07:14N 48°01' W 004°32'0 0.0
2018-Feb-13 06:54N 48°01' W 004°32'0 0.0
2018-Feb-13 06:28N 48°01' W 004°32'0 0.0
2018-Feb-13 05:57N 48°01' W 004°32'0 0.0
2018-Feb-13 05:30N 48°01' W 004°32'0 0.0
2018-Feb-13 05:00N 48°01' W 004°32'0 0.0
2018-Feb-13 04:03N 48°01' W 004°32'0 0.0
2018-Feb-13 03:45N 48°01' W 004°32'0 0.0
2018-Feb-13 03:27N 48°01' W 004°32'0 0.0
2018-Feb-13 02:49N 48°01' W 004°32'0 0.0
2018-Feb-13 02:27N 48°01' W 004°32'0 0.0
2018-Feb-13 01:59N 48°01' W 004°32'0 0.0
2018-Feb-13 01:30N 48°01' W 004°32'0 0.0
2018-Feb-13 00:59N 48°01' W 004°32'0 0.0
2018-Feb-13 00:29N 48°01' W 004°32'0 0.0
2018-Feb-13 00:00N 48°01' W 004°32'0 0.0
2018-Feb-12 23:29N 48°01' W 004°32'0 0.0
2018-Feb-12 22:49N 48°01' W 004°32'0 0.0
2018-Feb-12 22:30N 48°01' W 004°32'0 0.0
2018-Feb-12 22:00N 48°01' W 004°32'0 0.0
2018-Feb-12 21:27N 48°01' W 004°32'0 0.0
2018-Feb-12 20:56N 48°01' W 004°32'0 0.0
2018-Feb-12 20:29N 48°01' W 004°32'  
Track history (hours):
 
Tides and Currents Weather Stations Pressure Air Temp Water Temp Dewpoint Dewpoint Depression Visibility Wind Speed Wind Dir Waves Ship Positions

F/V L'arche D'allian

Last reported at 2018-Feb-22 20:25 UTC. Time now 2018-Feb-22 20:37 UTC.
Position N 48°01' W 004°32'.

Length 20 m.

Type: Fishing. MMSI: 227311000.

Date/timePositionNaut miles runAvg speedWind from/ knotsBaromVisibWave heightAir tempDewpointWater temp
2018-Feb-22 20:25N 48°01' W 004°32'0 0.0
2018-Feb-22 19:56N 48°01' W 004°32'0 0.0
2018-Feb-22 19:30N 48°01' W 004°32'0 0.0
2018-Feb-22 19:00N 48°01' W 004°32'0 0.0
2018-Feb-22 18:26N 48°01' W 004°32'0 0.0
2018-Feb-22 18:00N 48°01' W 004°32'0 0.0
2018-Feb-22 17:29N 48°01' W 004°32'0 0.0
2018-Feb-22 17:00N 48°01' W 004°32'0 0.0
2018-Feb-22 16:29N 48°01' W 004°32'0 0.0
2018-Feb-22 16:00N 48°01' W 004°32'0 0.0
2018-Feb-22 15:28N 48°01' W 004°32'0 0.0
2018-Feb-22 14:58N 48°01' W 004°32'0 0.0
2018-Feb-22 14:27N 48°01' W 004°32'2 5.1
2018-Feb-22 13:59N 47°59' W 004°34'510.1
2018-Feb-22 13:29N 47°57' W 004°41'5 9.9
2018-Feb-22 13:00N 47°55' W 004°48'5 9.3
2018-Feb-22 12:30N 47°53' W 004°54'1 2.6
2018-Feb-22 12:00N 47°52' W 004°55'2 4.8
2018-Feb-22 11:29N 47°52' W 004°51'1 1.3
2018-Feb-22 11:00N 47°51' W 004°51'1 1.6
2018-Feb-22 10:30N 47°50' W 004°51'0 0.8
2018-Feb-22 10:01N 47°50' W 004°51'1 1.1
2018-Feb-22 09:30N 47°51' W 004°51'1 1.4
2018-Feb-22 09:00N 47°51' W 004°50'1 1.2
2018-Feb-22 08:28N 47°52' W 004°50'1 1.4
2018-Feb-22 07:59N 47°53' W 004°50'1 1.1
2018-Feb-22 07:30N 47°53' W 004°50'5 9.7
2018-Feb-22 07:00N 47°55' W 004°44'510.9
2018-Feb-22 06:30N 47°58' W 004°37'4 8.8
2018-Feb-22 06:00N 48°01' W 004°32'0 0.0
2018-Feb-22 05:31N 48°01' W 004°32'0 0.0
2018-Feb-22 05:00N 48°01' W 004°32'0 0.0
2018-Feb-22 04:30N 48°01' W 004°32'0 0.0
2018-Feb-22 03:58N 48°01' W 004°32'0 0.0
2018-Feb-22 03:30N 48°01' W 004°32'0 0.0
2018-Feb-22 02:59N 48°01' W 004°32'0 0.0
2018-Feb-22 02:29N 48°01' W 004°32'0 0.0
2018-Feb-22 02:00N 48°01' W 004°32'0 0.0
2018-Feb-22 01:29N 48°01' W 004°32'0 0.0
2018-Feb-22 01:00N 48°01' W 004°32'0 0.0
2018-Feb-22 00:29N 48°01' W 004°32'0 0.0
2018-Feb-21 23:58N 48°01' W 004°32'0 0.0
2018-Feb-21 23:30N 48°01' W 004°32'0 0.0
2018-Feb-21 22:54N 48°01' W 004°32'0 0.0
2018-Feb-21 22:30N 48°01' W 004°32'0 0.0
2018-Feb-21 22:01N 48°01' W 004°32'0 0.0
2018-Feb-21 21:30N 48°01' W 004°32'0 0.0
2018-Feb-21 21:00N 48°01' W 004°32'0 0.0
2018-Feb-21 20:30N 48°01' W 004°32'0 0.0
2018-Feb-21 20:00N 48°01' W 004°32'0 0.0
2018-Feb-21 19:26N 48°01' W 004°32'0 0.0
2018-Feb-21 19:00N 48°01' W 004°32'0 0.0
2018-Feb-21 18:28N 48°01' W 004°32'0 0.0
2018-Feb-21 17:58N 48°01' W 004°32'0 0.0
2018-Feb-21 17:25N 48°01' W 004°32'0 0.0
2018-Feb-21 17:00N 48°01' W 004°32'0 0.0
2018-Feb-21 16:30N 48°01' W 004°32'0 0.0
2018-Feb-21 15:58N 48°01' W 004°32'0 0.0
2018-Feb-21 15:31N 48°01' W 004°32'2 3.8
2018-Feb-21 14:59N 47°60' W 004°34'510.4
2018-Feb-21 14:28N 47°57' W 004°41'510.5
2018-Feb-21 13:59N 47°54' W 004°47'4 9.1
2018-Feb-21 13:30N 47°51' W 004°51'3 6.6
2018-Feb-21 13:00N 47°54' W 004°49'611.5
2018-Feb-21 12:29N 47°55' W 004°40'3 5.9
2018-Feb-21 12:00N 47°55' W 004°36'0 1.0
2018-Feb-21 11:30N 47°55' W 004°36'1 1.4
2018-Feb-21 11:01N 47°55' W 004°36'1 1.4
2018-Feb-21 10:30N 47°55' W 004°35'1 0.9
2018-Feb-21 09:57N 47°55' W 004°35'0 0.4
2018-Feb-21 09:30N 47°55' W 004°35'0 0.7
2018-Feb-21 08:59N 47°55' W 004°34'2 3.7
2018-Feb-21 08:26N 47°57' W 004°34'510.3
2018-Feb-21 08:00N 48°01' W 004°32'0 0.0
2018-Feb-21 07:25N 48°01' W 004°32'0 0.0
2018-Feb-21 07:00N 48°01' W 004°32'0 0.0
2018-Feb-21 06:29N 48°01' W 004°32'0 0.0
2018-Feb-21 05:59N 48°01' W 004°32'0 0.0
2018-Feb-21 05:30N 48°01' W 004°32'0 0.0
2018-Feb-21 05:00N 48°01' W 004°32'0 0.0
2018-Feb-21 04:30N 48°01' W 004°32'0 0.0
2018-Feb-21 03:59N 48°01' W 004°32'0 0.0
2018-Feb-21 03:29N 48°01' W 004°32'0 0.0
2018-Feb-21 03:00N 48°01' W 004°32'0 0.0
2018-Feb-21 02:30N 48°01' W 004°32'0 0.0
2018-Feb-21 01:59N 48°01' W 004°32'0 0.0
2018-Feb-21 01:28N 48°01' W 004°32'0 0.0
2018-Feb-21 00:57N 48°01' W 004°32'0 0.0
2018-Feb-21 00:27N 48°01' W 004°32'0 0.0
2018-Feb-21 00:00N 48°01' W 004°32'0 0.0
2018-Feb-20 23:29N 48°01' W 004°32'0 0.0
2018-Feb-20 22:59N 48°01' W 004°32'0 0.0
2018-Feb-20 22:28N 48°01' W 004°32'0 0.0
2018-Feb-20 22:00N 48°01' W 004°32'0 0.0
2018-Feb-20 21:30N 48°01' W 004°32'0 0.0
2018-Feb-20 20:59N 48°01' W 004°32'0 0.0
2018-Feb-20 20:29N 48°01' W 004°32'0 0.0
2018-Feb-20 19:59N 48°01' W 004°32'0 0.0
2018-Feb-20 19:29N 48°01' W 004°32'0 0.0
2018-Feb-20 18:55N 48°01' W 004°32'0 0.0
2018-Feb-20 18:29N 48°01' W 004°32'0 0.0
2018-Feb-20 17:59N 48°01' W 004°32'0 0.0
2018-Feb-20 17:30N 48°01' W 004°32'0 0.0
2018-Feb-20 16:57N 48°01' W 004°32'0 0.0
2018-Feb-20 16:30N 48°01' W 004°32'0 0.0
2018-Feb-20 15:59N 48°01' W 004°32'0 0.0
2018-Feb-20 15:26N 48°01' W 004°32'0 0.0
2018-Feb-20 14:55N 48°01' W 004°32'0 0.0
2018-Feb-20 14:30N 48°01' W 004°32'1 1.7
2018-Feb-20 13:57N 48°00' W 004°33'3 6.7
2018-Feb-20 13:28N 47°57' W 004°34'2 4.8
2018-Feb-20 12:59N 47°55' W 004°35'0 0.8
2018-Feb-20 12:30N 47°55' W 004°35'2 3.5
2018-Feb-20 12:00N 47°55' W 004°33'1 1.3
2018-Feb-20 11:31N 47°54' W 004°32'0 0.6
2018-Feb-20 10:54N 47°54' W 004°33'1 1.5
2018-Feb-20 10:29N 47°54' W 004°33'0 0.9
2018-Feb-20 10:01N 47°54' W 004°33'0 0.4
2018-Feb-20 09:30N 47°54' W 004°33'1 1.5
2018-Feb-20 09:00N 47°55' W 004°33'1 2.0
2018-Feb-20 08:29N 47°56' W 004°33'510.7
2018-Feb-20 08:00N 48°01' W 004°32'0 0.2
2018-Feb-20 07:28N 48°01' W 004°32'0 0.0
2018-Feb-20 07:00N 48°01' W 004°32'0 0.0
2018-Feb-20 06:27N 48°01' W 004°32'0 0.0
2018-Feb-20 06:00N 48°01' W 004°32'0 0.0
2018-Feb-20 05:30N 48°01' W 004°32'0 0.0
2018-Feb-20 04:59N 48°01' W 004°32'0 0.0
2018-Feb-20 04:30N 48°01' W 004°32'0 0.0
2018-Feb-20 04:00N 48°01' W 004°32'0 0.0
2018-Feb-20 03:30N 48°01' W 004°32'0 0.0
2018-Feb-20 03:00N 48°01' W 004°32'0 0.0
2018-Feb-20 02:30N 48°01' W 004°32'0 0.0
2018-Feb-20 02:00N 48°01' W 004°32'0 0.0
2018-Feb-20 01:29N 48°01' W 004°32'0 0.0
2018-Feb-20 00:57N 48°01' W 004°32'0 0.0
2018-Feb-20 00:29N 48°01' W 004°32'0 0.0
2018-Feb-19 23:54N 48°01' W 004°32'0 0.0
2018-Feb-19 23:30N 48°01' W 004°32'0 0.0
2018-Feb-19 23:01N 48°01' W 004°32'0 0.0
2018-Feb-19 22:29N 48°01' W 004°32'0 0.0
2018-Feb-19 21:59N 48°01' W 004°32'0 0.0
2018-Feb-19 21:30N 48°01' W 004°32'0 0.0
2018-Feb-19 21:00N 48°01' W 004°32'0 0.0
2018-Feb-19 20:30N 48°01' W 004°32'0 0.0
2018-Feb-19 19:59N 48°01' W 004°32'0 0.0
2018-Feb-19 19:30N 48°01' W 004°32'0 0.0
2018-Feb-19 18:58N 48°01' W 004°32'0 0.0
2018-Feb-19 18:29N 48°01' W 004°32'5 9.8
2018-Feb-19 18:00N 47°56' W 004°33'2 4.9
2018-Feb-19 17:30N 47°54' W 004°33'5 9.5
2018-Feb-19 17:00N 47°59' W 004°33'3 4.9
2018-Feb-19 16:29N 48°01' W 004°32'0 0.0
2018-Feb-19 16:00N 48°01' W 004°32'0 0.0
2018-Feb-19 15:29N 48°01' W 004°32'0 0.0
2018-Feb-19 15:00N 48°01' W 004°32'0 0.0
2018-Feb-19 14:30N 48°01' W 004°32'0 0.0
2018-Feb-19 14:00N 48°01' W 004°32'0 0.0
2018-Feb-19 13:30N 48°01' W 004°32'0 0.0
2018-Feb-19 12:55N 48°01' W 004°32'0 0.0
2018-Feb-19 12:30N 48°01' W 004°32'0 0.0
2018-Feb-19 12:01N 48°01' W 004°32'0 0.0
2018-Feb-19 11:30N 48°01' W 004°32'0 0.0
2018-Feb-19 11:01N 48°01' W 004°32'0 0.0
2018-Feb-19 10:29N 48°01' W 004°32'0 0.0
2018-Feb-19 10:00N 48°01' W 004°32'0 0.0
2018-Feb-19 09:29N 48°01' W 004°32'0 0.0
2018-Feb-19 08:52N 48°01' W 004°32'0 0.0
2018-Feb-19 08:28N 48°01' W 004°32'0 0.0
2018-Feb-19 08:00N 48°01' W 004°32'0 0.0
2018-Feb-19 07:30N 48°01' W 004°32'0 0.0
2018-Feb-19 06:58N 48°01' W 004°32'0 0.0
2018-Feb-19 06:30N 48°01' W 004°32'0 0.2
2018-Feb-19 05:59N 48°01' W 004°32'0 0.1
2018-Feb-19 05:27N 48°01' W 004°32'0 0.0
2018-Feb-19 04:57N 48°01' W 004°32'0 0.0
2018-Feb-19 04:30N 48°01' W 004°32'0 0.0
2018-Feb-19 04:00N 48°01' W 004°32'0 0.0
2018-Feb-19 03:30N 48°01' W 004°32'0 0.0
2018-Feb-19 03:00N 48°01' W 004°32'0 0.0
2018-Feb-19 02:29N 48°01' W 004°32'0 0.0
2018-Feb-19 02:00N 48°01' W 004°32'0 0.0
2018-Feb-19 01:28N 48°01' W 004°32'0 0.0
2018-Feb-19 00:59N 48°01' W 004°32'0 0.0
2018-Feb-19 00:29N 48°01' W 004°32'0 0.0
2018-Feb-19 00:01N 48°01' W 004°32'0 0.0
2018-Feb-18 23:30N 48°01' W 004°32'0 0.0
2018-Feb-18 22:58N 48°01' W 004°32'0 0.0
2018-Feb-18 22:30N 48°01' W 004°32'0 0.0
2018-Feb-18 21:56N 48°01' W 004°32'0 0.0
2018-Feb-18 21:30N 48°01' W 004°32'0 0.0
2018-Feb-18 20:55N 48°01' W 004°32'0 0.0
2018-Feb-18 20:22N 48°01' W 004°32'0 0.0
2018-Feb-18 20:00N 48°01' W 004°32'0 0.0
2018-Feb-18 19:27N 48°01' W 004°32'0 0.0
2018-Feb-18 18:55N 48°01' W 004°32'0 0.0
2018-Feb-18 18:20N 48°01' W 004°32'0 0.0
2018-Feb-18 17:55N 48°01' W 004°32'0 0.0
2018-Feb-18 17:26N 48°01' W 004°32'0 0.0
2018-Feb-18 16:56N 48°01' W 004°32'0 0.0
2018-Feb-18 16:15N 48°01' W 004°32'0 0.0
2018-Feb-18 15:51N 48°01' W 004°32'0 0.0
2018-Feb-18 15:26N 48°01' W 004°32'0 0.0
2018-Feb-18 15:00N 48°01' W 004°32'0 0.0
2018-Feb-18 14:30N 48°01' W 004°32'0 0.0
2018-Feb-18 13:59N 48°01' W 004°32'1 1.3
2018-Feb-18 13:29N 48°01' W 004°32'0 0.7
2018-Feb-18 13:00N 48°00' W 004°33'2 4.6
2018-Feb-18 12:29N 47°58' W 004°33'3 5.9
2018-Feb-18 11:59N 47°55' W 004°33'1 1.5
2018-Feb-18 11:30N 47°54' W 004°33'0 0.5
2018-Feb-18 10:58N 47°54' W 004°34'0 0.8
2018-Feb-18 10:28N 47°55' W 004°34'1 1.4
2018-Feb-18 10:01N 47°54' W 004°34'1 1.0
2018-Feb-18 09:28N 47°55' W 004°35'0 0.6
2018-Feb-18 09:01N 47°55' W 004°35'0 0.7
2018-Feb-18 08:30N 47°54' W 004°35'1 2.8
2018-Feb-18 07:58N 47°56' W 004°35'510.8
2018-Feb-18 07:28N 48°01' W 004°32'0 0.6
2018-Feb-18 07:00N 48°01' W 004°32'0 0.0
2018-Feb-18 06:30N 48°01' W 004°32'0 0.0
2018-Feb-18 06:00N 48°01' W 004°32'0 0.0
2018-Feb-18 05:30N 48°01' W 004°32'0 0.0
2018-Feb-18 05:00N 48°01' W 004°32'0 0.0
2018-Feb-18 04:30N 48°01' W 004°32'0 0.0
2018-Feb-18 04:00N 48°01' W 004°32'0 0.0
2018-Feb-18 03:30N 48°01' W 004°32'0 0.0
2018-Feb-18 03:00N 48°01' W 004°32'0 0.0
2018-Feb-18 02:30N 48°01' W 004°32'0 0.0
2018-Feb-18 02:00N 48°01' W 004°32'0 0.0
2018-Feb-18 01:29N 48°01' W 004°32'0 0.0
2018-Feb-18 00:57N 48°01' W 004°32'0 0.0
2018-Feb-18 00:30N 48°01' W 004°32'0 0.0
2018-Feb-17 23:53N 48°01' W 004°32'0 0.0
2018-Feb-17 23:28N 48°01' W 004°32'0 0.0
2018-Feb-17 23:00N 48°01' W 004°32'0 0.0
2018-Feb-17 22:30N 48°01' W 004°32'0 0.0
2018-Feb-17 21:58N 48°01' W 004°32'0 0.0
2018-Feb-17 21:30N 48°01' W 004°32'0 0.0
2018-Feb-17 21:00N 48°01' W 004°32'0 0.0
2018-Feb-17 20:29N 48°01' W 004°32'0 0.0
2018-Feb-17 20:00N 48°01' W 004°32'0 0.0
2018-Feb-17 19:29N 48°01' W 004°32'0 0.0
2018-Feb-17 19:00N 48°01' W 004°32'0 0.0
2018-Feb-17 18:28N 48°01' W 004°32'0 0.0
2018-Feb-17 17:58N 48°01' W 004°32'0 0.0
2018-Feb-17 17:28N 48°01' W 004°32'0 0.0
2018-Feb-17 16:58N 48°01' W 004°32'0 0.0
2018-Feb-17 16:30N 48°01' W 004°32'0 0.0
2018-Feb-17 16:00N 48°01' W 004°32'0 0.0
2018-Feb-17 15:29N 48°01' W 004°32'0 0.0
2018-Feb-17 15:00N 48°01' W 004°32'0 0.0
2018-Feb-17 14:31N 48°01' W 004°32'2 3.0
2018-Feb-17 14:00N 47°60' W 004°33'510.6
2018-Feb-17 13:30N 47°55' W 004°35'1 2.9
2018-Feb-17 13:00N 47°54' W 004°34'1 1.5
2018-Feb-17 12:30N 47°54' W 004°33'0 0.3
2018-Feb-17 11:50N 47°54' W 004°33'1 1.3
2018-Feb-17 11:27N 47°54' W 004°33'0 0.4
2018-Feb-17 11:01N 47°54' W 004°33'1 1.2
2018-Feb-17 10:31N 47°54' W 004°33'1 1.0
2018-Feb-17 10:00N 47°54' W 004°33'0 1.0
2018-Feb-17 09:31N 47°55' W 004°33'1 1.3
2018-Feb-17 09:00N 47°54' W 004°34'0 0.7
2018-Feb-17 08:29N 47°54' W 004°34'2 4.4
2018-Feb-17 07:57N 47°57' W 004°33'510.4
2018-Feb-17 07:30N 48°01' W 004°32'0 0.2
2018-Feb-17 06:56N 48°01' W 004°32'0 0.0
2018-Feb-17 06:27N 48°01' W 004°32'0 0.0
2018-Feb-17 06:01N 48°01' W 004°32'0 0.0
2018-Feb-17 05:29N 48°01' W 004°32'0 0.0
2018-Feb-17 05:00N 48°01' W 004°32'0 0.0
2018-Feb-17 04:30N 48°01' W 004°32'0 0.0
2018-Feb-17 03:57N 48°01' W 004°32'0 0.0
2018-Feb-17 03:30N 48°01' W 004°32'0 0.0
2018-Feb-17 03:00N 48°01' W 004°32'0 0.0
2018-Feb-17 02:30N 48°01' W 004°32'0 0.0
2018-Feb-17 01:58N 48°01' W 004°32'0 0.0
2018-Feb-17 01:30N 48°01' W 004°32'0 0.0
2018-Feb-17 01:00N 48°01' W 004°32'0 0.0
2018-Feb-17 00:27N 48°01' W 004°32'0 0.0
2018-Feb-16 23:57N 48°01' W 004°32'0 0.0
2018-Feb-16 23:28N 48°01' W 004°32'0 0.0
2018-Feb-16 23:00N 48°01' W 004°32'0 0.0
2018-Feb-16 22:12N 48°01' W 004°32'0 0.0
2018-Feb-16 21:58N 48°01' W 004°32'0 0.0
2018-Feb-16 21:30N 48°01' W 004°32'0 0.0
2018-Feb-16 21:00N 48°01' W 004°32'0 0.0
2018-Feb-16 20:30N 48°01' W 004°32'0 0.0
2018-Feb-16 19:59N 48°01' W 004°32'0 0.0
2018-Feb-16 19:30N 48°01' W 004°32'0 0.0
2018-Feb-16 18:58N 48°01' W 004°32'0 0.0
2018-Feb-16 18:30N 48°01' W 004°32'0 0.0
2018-Feb-16 18:00N 48°01' W 004°32'0 0.0
2018-Feb-16 17:29N 48°01' W 004°32'0 0.0
2018-Feb-16 16:57N 48°01' W 004°32'0 0.0
2018-Feb-16 16:30N 48°01' W 004°32'0 0.0
2018-Feb-16 16:00N 48°01' W 004°32'0 0.0
2018-Feb-16 15:30N 48°01' W 004°32'0 0.0
2018-Feb-16 15:00N 48°01' W 004°32'0 0.0
2018-Feb-16 14:28N 48°01' W 004°32'3 6.5
2018-Feb-16 14:00N 47°58' W 004°33'4 8.0
2018-Feb-16 13:30N 47°54' W 004°34'1 1.3
2018-Feb-16 13:00N 47°54' W 004°33'0 0.5
2018-Feb-16 12:30N 47°54' W 004°33'0 0.9
2018-Feb-16 12:00N 47°54' W 004°33'0 0.8
2018-Feb-16 11:29N 47°53' W 004°32'0 1.0
2018-Feb-16 11:00N 47°53' W 004°32'1 1.0
2018-Feb-16 10:29N 47°52' W 004°32'1 1.2
2018-Feb-16 10:00N 47°52' W 004°31'1 1.0
2018-Feb-16 09:22N 47°53' W 004°32'0 1.3
2018-Feb-16 08:59N 47°53' W 004°32'0 1.0
2018-Feb-16 08:30N 47°53' W 004°32'1 1.2
2018-Feb-16 07:59N 47°54' W 004°32'2 4.3
2018-Feb-16 07:30N 47°56' W 004°32'510.1
2018-Feb-16 07:00N 48°01' W 004°32'0 0.1
2018-Feb-16 06:30N 48°01' W 004°32'0 0.0
2018-Feb-16 06:00N 48°01' W 004°32'0 0.0
2018-Feb-16 05:29N 48°01' W 004°32'0 0.0
2018-Feb-16 05:00N 48°01' W 004°32'0 0.0
2018-Feb-16 04:30N 48°01' W 004°32'0 0.0
2018-Feb-16 04:00N 48°01' W 004°32'0 0.0
2018-Feb-16 03:28N 48°01' W 004°32'0 0.0
2018-Feb-16 02:59N 48°01' W 004°32'0 0.0
2018-Feb-16 02:30N 48°01' W 004°32'0 0.0
2018-Feb-16 02:00N 48°01' W 004°32'0 0.0
2018-Feb-16 01:30N 48°01' W 004°32'0 0.0
2018-Feb-16 00:59N 48°01' W 004°32'0 0.0
2018-Feb-16 00:30N 48°01' W 004°32'0 0.0
2018-Feb-15 23:59N 48°01' W 004°32'0 0.0
2018-Feb-15 23:28N 48°01' W 004°32'0 0.0
2018-Feb-15 22:59N 48°01' W 004°32'0 0.0
2018-Feb-15 22:30N 48°01' W 004°32'0 0.0
2018-Feb-15 21:59N 48°01' W 004°32'0 0.0
2018-Feb-15 21:25N 48°01' W 004°32'0 0.0
2018-Feb-15 20:57N 48°01' W 004°32'0 0.0
2018-Feb-15 20:30N 48°01' W 004°32'0 0.0
2018-Feb-15 19:57N 48°01' W 004°32'0 0.0
2018-Feb-15 19:27N 48°01' W 004°32'0 0.0
2018-Feb-15 18:56N 48°01' W 004°32'0 0.0
2018-Feb-15 18:30N 48°01' W 004°32'0 0.0
2018-Feb-15 17:56N 48°01' W 004°32'0 0.0
2018-Feb-15 17:30N 48°01' W 004°32'0 0.0
2018-Feb-15 16:53N 48°01' W 004°32'0 0.0
2018-Feb-15 16:29N 48°01' W 004°32'0 0.0
2018-Feb-15 15:56N 48°01' W 004°32'0 0.0
2018-Feb-15 15:23N 48°01' W 004°32'0 0.0
2018-Feb-15 14:58N 48°01' W 004°32'0 0.0
2018-Feb-15 14:30N 48°01' W 004°32'1 1.1
2018-Feb-15 14:00N 48°01' W 004°32'510.4
2018-Feb-15 13:30N 47°55' W 004°32'1 1.1
2018-Feb-15 12:41N 47°55' W 004°33'0 0.9
2018-Feb-15 12:24N 47°55' W 004°33'0 0.8
2018-Feb-15 11:52N 47°55' W 004°33'1 2.5
2018-Feb-15 11:30N 47°54' W 004°33'1 1.1
2018-Feb-15 10:58N 47°54' W 004°33'1 1.5
2018-Feb-15 10:27N 47°54' W 004°33'1 1.0
2018-Feb-15 09:57N 47°55' W 004°33'1 1.1
2018-Feb-15 09:28N 47°54' W 004°34'0 0.5
2018-Feb-15 08:55N 47°54' W 004°34'0 1.0
2018-Feb-15 08:28N 47°55' W 004°34'1 1.1
2018-Feb-15 08:00N 47°55' W 004°34'1 2.1
2018-Feb-15 07:28N 47°57' W 004°34'5 9.4
2018-Feb-15 06:57N 48°01' W 004°32'0 0.0
2018-Feb-15 06:28N 48°01' W 004°32'0 0.0
2018-Feb-15 06:00N 48°01' W 004°32'0 0.0
2018-Feb-15 05:28N 48°01' W 004°32'0 0.0
2018-Feb-15 04:59N 48°01' W 004°32'0 0.0
2018-Feb-15 04:29N 48°01' W 004°32'0 0.0
2018-Feb-15 03:56N 48°01' W 004°32'0 0.0
2018-Feb-15 03:26N 48°01' W 004°32'0 0.0
2018-Feb-15 02:52N 48°01' W 004°32'0 0.0
2018-Feb-15 02:30N 48°01' W 004°32'0 0.0
2018-Feb-15 01:58N 48°01' W 004°32'0 0.0
2018-Feb-15 01:27N 48°01' W 004°32'0 0.0
2018-Feb-15 00:57N 48°01' W 004°32'0 0.0
2018-Feb-15 00:28N 48°01' W 004°32'0 0.0
2018-Feb-14 23:57N 48°01' W 004°32'0 0.0
2018-Feb-14 23:30N 48°01' W 004°32'0 0.0
2018-Feb-14 22:57N 48°01' W 004°32'0 0.0
2018-Feb-14 22:30N 48°01' W 004°32'0 0.0
2018-Feb-14 21:57N 48°01' W 004°32'0 0.0
2018-Feb-14 21:20N 48°01' W 004°32'0 0.0
2018-Feb-14 20:58N 48°01' W 004°32'0 0.0
2018-Feb-14 20:22N 48°01' W 004°32'0 0.0
2018-Feb-14 19:59N 48°01' W 004°32'0 0.0
2018-Feb-14 19:29N 48°01' W 004°32'0 0.0
2018-Feb-14 18:51N 48°01' W 004°32'0 0.0
2018-Feb-14 18:29N 48°01' W 004°32'0 0.0
2018-Feb-14 17:56N 48°01' W 004°32'0 0.0
2018-Feb-14 17:22N 48°01' W 004°32'0 0.0
2018-Feb-14 16:59N 48°01' W 004°32'0 0.0
2018-Feb-14 16:29N 48°01' W 004°32'0 0.0
2018-Feb-14 15:57N 48°01' W 004°32'0 0.0
2018-Feb-14 15:29N 48°01' W 004°32'0 0.0
2018-Feb-14 14:59N 48°01' W 004°32'510.3
2018-Feb-14 14:28N 47°56' W 004°33'1 2.8
2018-Feb-14 14:00N 47°55' W 004°34'4 6.5
2018-Feb-14 13:24N 47°58' W 004°33'3 7.1
2018-Feb-14 13:00N 48°01' W 004°32'0 0.0
2018-Feb-14 12:30N 48°01' W 004°32'0 0.0
2018-Feb-14 12:00N 48°01' W 004°32'0 0.0
2018-Feb-14 11:30N 48°01' W 004°32'0 0.0
2018-Feb-14 10:58N 48°01' W 004°32'0 0.0
2018-Feb-14 10:29N 48°01' W 004°32'0 0.0
2018-Feb-14 09:48N 48°01' W 004°32'0 0.0
2018-Feb-14 09:28N 48°01' W 004°32'0 0.0
2018-Feb-14 09:00N 48°01' W 004°32'0 0.0
2018-Feb-14 08:24N 48°01' W 004°32'0 0.0
2018-Feb-14 07:58N 48°01' W 004°32'0 0.0
2018-Feb-14 07:29N 48°01' W 004°32'0 0.0
2018-Feb-14 07:00N 48°01' W 004°32'0 0.0
2018-Feb-14 06:27N 48°01' W 004°32'0 0.0
2018-Feb-14 05:55N 48°01' W 004°32'0 0.0
2018-Feb-14 05:30N 48°01' W 004°32'0 0.0
2018-Feb-14 04:55N 48°01' W 004°32'0 0.0
2018-Feb-14 04:26N 48°01' W 004°32'0 0.0
2018-Feb-14 03:59N 48°01' W 004°32'0 0.0
2018-Feb-14 03:27N 48°01' W 004°32'0 0.0
2018-Feb-14 02:59N 48°01' W 004°32'0 0.0
2018-Feb-14 02:30N 48°01' W 004°32'0 0.0
2018-Feb-14 01:59N 48°01' W 004°32'0 0.0
2018-Feb-14 01:25N 48°01' W 004°32'0 0.0
2018-Feb-14 01:00N 48°01' W 004°32'0 0.0
2018-Feb-14 00:26N 48°01' W 004°32'0 0.0
2018-Feb-13 23:58N 48°01' W 004°32'0 0.0
2018-Feb-13 23:30N 48°01' W 004°32'0 0.0
2018-Feb-13 23:00N 48°01' W 004°32'0 0.0
2018-Feb-13 22:28N 48°01' W 004°32'0 0.0
2018-Feb-13 21:58N 48°01' W 004°32'0 0.0
2018-Feb-13 21:30N 48°01' W 004°32'0 0.0
2018-Feb-13 21:00N 48°01' W 004°32'0 0.0
2018-Feb-13 20:26N 48°01' W 004°32'0 0.0
2018-Feb-13 19:56N 48°01' W 004°32'0 0.0
2018-Feb-13 19:30N 48°01' W 004°32'0 0.0
2018-Feb-13 18:59N 48°01' W 004°32'0 0.0
2018-Feb-13 18:30N 48°01' W 004°32'0 0.0
2018-Feb-13 17:50N 48°01' W 004°32'0 0.0
2018-Feb-13 17:30N 48°01' W 004°32'0 0.0
2018-Feb-13 16:59N 48°01' W 004°32'0 0.0
2018-Feb-13 16:29N 48°01' W 004°32'0 0.0
2018-Feb-13 15:59N 48°01' W 004°32'0 0.0
2018-Feb-13 15:25N 48°01' W 004°32'0 0.0
2018-Feb-13 14:54N 48°01' W 004°32'0 0.0
2018-Feb-13 14:25N 48°01' W 004°32'1 2.9
2018-Feb-13 13:59N 48°00' W 004°33'5 9.9
2018-Feb-13 13:30N 47°56' W 004°36'1 1.8
2018-Feb-13 13:00N 47°55' W 004°36'0 0.8
2018-Feb-13 12:30N 47°55' W 004°35'0 0.5
2018-Feb-13 12:00N 47°55' W 004°35'1 1.3
2018-Feb-13 11:30N 47°54' W 004°35'1 1.1
2018-Feb-13 10:59N 47°55' W 004°35'3 5.3
2018-Feb-13 10:23N 47°58' W 004°33'3 8.0
2018-Feb-13 10:00N 48°01' W 004°32'0 0.0
2018-Feb-13 09:29N 48°01' W 004°32'0 0.0
2018-Feb-13 08:52N 48°01' W 004°32'0 0.0
2018-Feb-13 08:29N 48°01' W 004°32'0 0.0
2018-Feb-13 07:57N 48°01' W 004°32'0 0.0
2018-Feb-13 07:14N 48°01' W 004°32'0 0.0
2018-Feb-13 06:54N 48°01' W 004°32'0 0.0
2018-Feb-13 06:28N 48°01' W 004°32'0 0.0
2018-Feb-13 05:57N 48°01' W 004°32'0 0.0
2018-Feb-13 05:30N 48°01' W 004°32'0 0.0
2018-Feb-13 05:00N 48°01' W 004°32'0 0.0
2018-Feb-13 04:03N 48°01' W 004°32'0 0.0
2018-Feb-13 03:45N 48°01' W 004°32'0 0.0
2018-Feb-13 03:27N 48°01' W 004°32'0 0.0
2018-Feb-13 02:49N 48°01' W 004°32'0 0.0
2018-Feb-13 02:27N 48°01' W 004°32'0 0.0
2018-Feb-13 01:59N 48°01' W 004°32'0 0.0
2018-Feb-13 01:30N 48°01' W 004°32'0 0.0
2018-Feb-13 00:59N 48°01' W 004°32'0 0.0
2018-Feb-13 00:29N 48°01' W 004°32'0 0.0
2018-Feb-13 00:00N 48°01' W 004°32'0 0.0
2018-Feb-12 23:29N 48°01' W 004°32'0 0.0
2018-Feb-12 22:49N 48°01' W 004°32'0 0.0
2018-Feb-12 22:30N 48°01' W 004°32'0 0.0
2018-Feb-12 22:00N 48°01' W 004°32'0 0.0
2018-Feb-12 21:27N 48°01' W 004°32'0 0.0
2018-Feb-12 20:56N 48°01' W 004°32'0 0.0
2018-Feb-12 20:29N 48°01' W 004°32'  

Dump ship's entire track history